Time;durP1;ratioP1;P1;durP2;ratioP2;P2;SDS_P1;SDS_P2;PMS_P1;PMS_P2;Temp;Humidity;BMP_temperature;BMP_pressure;BME280_temperature;BME280_humidity;BME280_pressure;Samples;Min_cycle;Max_cycle;Signal;HPM_P1;HPM_P2
2023/03/06 00:01:08;;;;;;;;;;;;;;;26.48;47.25;96340.36;625001;227;64164;-73
2023/03/06 00:03:35;;;;;;;;;;;;;;;26.47;48.66;96346.87;625008;227;64884;-73
2023/03/06 00:06:02;;;;;;;;;;;;;;;26.47;50.00;96341.48;624989;227;64450;-73
2023/03/06 00:08:30;;;;;;;;;;;;;;;26.45;49.90;96343.70;624987;227;64214;-73
2023/03/06 00:10:57;;;;;;;;;;;;;;;26.45;50.39;96333.70;625046;227;64942;-73
2023/03/06 00:13:28;;;;;;;;;;;;;;;26.44;48.20;96342.13;625007;227;64399;-73
2023/03/06 00:15:56;;;;;;;;;;;;;;;26.43;49.01;96335.14;624957;226;64400;-73
2023/03/06 00:18:23;;;;;;;;;;;;;;;26.42;48.88;96337.05;624980;227;65651;-72
2023/03/06 00:20:51;;;;;;;;;;;;;;;26.41;47.63;96332.78;624985;227;64429;-72
2023/03/06 00:23:18;;;;;;;;;;;;;;;26.40;46.77;96328.49;625063;227;64204;-72
2023/03/06 00:25:46;;;;;;;;;;;;;;;26.41;49.01;96326.59;624987;227;62754;-72
2023/03/06 00:28:14;;;;;;;;;;;;;;;26.40;48.70;96330.41;624994;227;64473;-72
2023/03/06 00:30:42;;;;;;;;;;;;;;;26.39;49.56;96318.06;624997;227;64258;-72
2023/03/06 00:33:10;;;;;;;;;;;;;;;26.38;48.63;96322.63;624992;227;64919;-72
2023/03/06 00:35:38;;;;;;;;;;;;;;;26.38;49.91;96319.15;624978;227;62362;-72
2023/03/06 00:38:06;;;;;;;;;;;;;;;26.38;48.50;96329.92;625005;226;62092;-72
2023/03/06 00:40:33;;;;;;;;;;;;;;;26.37;51.56;96331.05;624983;227;62829;-72
2023/03/06 00:43:01;;;;;;;;;;;;;;;26.35;49.09;96324.09;624997;227;63237;-72
2023/03/06 00:45:29;;;;;;;;;;;;;;;26.34;48.66;96333.27;625020;227;63077;-72
2023/03/06 00:47:56;;;;;;;;;;;;;;;26.34;49.39;96333.27;624946;227;63034;-72
2023/03/06 00:50:24;;;;;;;;;;;;;;;26.33;51.59;96326.31;625042;227;64978;-72
2023/03/06 00:52:52;;;;;;;;;;;;;;;26.33;48.39;96325.52;625001;227;64692;-72
2023/03/06 00:55:19;;;;;;;;;;;;;;;26.32;50.72;96327.41;624976;227;64841;-72
2023/03/06 00:57:48;;;;;;;;;;;;;;;26.31;49.07;96327.74;625000;227;65044;-72
2023/03/06 01:00:16;;;;;;;;;;;;;;;26.30;48.22;96321.57;624956;227;64181;-72
2023/03/06 01:02:43;;;;;;;;;;;;;;;26.29;48.48;96322.66;625003;227;62638;-72
2023/03/06 01:05:12;;;;;;;;;;;;;;;26.28;48.10;96323.79;625036;227;64085;-72
2023/03/06 01:07:40;;;;;;;;;;;;;;;26.27;48.46;96322.22;624976;227;62318;-73
2023/03/06 01:10:08;;;;;;;;;;;;;;;26.28;51.38;96321.09;625002;227;64912;-73
2023/03/06 01:12:35;;;;;;;;;;;;;;;26.26;47.58;96320.62;624969;227;65609;-73
2023/03/06 01:15:04;;;;;;;;;;;;;;;26.27;48.00;96334.87;624966;227;64306;-73
2023/03/06 01:17:31;;;;;;;;;;;;;;;26.26;50.65;96330.61;625037;227;66138;-73
2023/03/06 01:19:59;;;;;;;;;;;;;;;26.25;51.23;96323.65;624959;227;64437;-73
2023/03/06 01:22:26;;;;;;;;;;;;;;;26.24;51.72;96322.84;625022;227;64116;-73
2023/03/06 01:24:54;;;;;;;;;;;;;;;26.22;49.49;96327.77;624991;227;64892;-73
2023/03/06 01:27:21;;;;;;;;;;;;;;;26.22;48.38;96332.34;624968;227;64455;-73
2023/03/06 01:29:49;;;;;;;;;;;;;;;26.21;52.04;96330.78;625028;227;64284;-73
2023/03/06 01:32:16;;;;;;;;;;;;;;;26.21;49.12;96338.86;624988;227;64977;-73
2023/03/06 01:34:44;;;;;;;;;;;;;;;26.19;50.95;96331.12;624982;227;64324;-73
2023/03/06 01:37:11;;;;;;;;;;;;;;;26.19;51.77;96339.20;625031;226;62118;-73
2023/03/06 01:39:39;;;;;;;;;;;;;;;26.18;50.06;96331.42;626115;226;63597;-73
2023/03/06 01:42:07;;;;;;;;;;;;;;;26.18;49.97;96337.59;626141;226;63182;-73
2023/03/06 01:44:34;;;;;;;;;;;;;;;26.17;50.82;96336.02;626126;226;63139;-73
2023/03/06 01:47:02;;;;;;;;;;;;;;;26.17;51.72;96330.64;626128;226;62631;-73
2023/03/06 01:49:34;;;;;;;;;;;;;;;26.16;48.99;96341.72;626121;226;64608;-73
2023/03/06 01:52:12;;;;;;;;;;;;;;;26.15;49.97;96340.94;625837;226;62160;-73
2023/03/06 01:54:41;;;;;;;;;;;;;;;26.15;49.42;96346.31;626105;226;64852;-73
2023/03/06 01:57:10;;;;;;;;;;;;;;;26.12;50.22;96336.97;626167;226;64655;-73
2023/03/06 01:59:39;;;;;;;;;;;;;;;26.13;52.91;96343.14;625386;226;64132;-73
2023/03/06 02:02:08;;;;;;;;;;;;;;;26.12;51.84;96350.44;626133;226;62801;-73
2023/03/06 02:04:36;;;;;;;;;;;;;;;26.10;49.27;96349.17;626109;226;62132;-73
2023/03/06 02:07:03;;;;;;;;;;;;;;;26.10;51.51;96347.27;626094;226;62333;-73
2023/03/06 02:09:33;;;;;;;;;;;;;;;26.11;54.02;96351.56;625816;226;47917;-73
2023/03/06 02:12:02;;;;;;;;;;;;;;;26.08;48.04;96351.39;626118;226;64410;-73
2023/03/06 02:14:29;;;;;;;;;;;;;;;26.08;50.40;96352.20;626147;226;62028;-72
2023/03/06 02:16:57;;;;;;;;;;;;;;;26.08;50.59;96354.09;626132;226;63723;-73
2023/03/06 02:19:26;;;;;;;;;;;;;;;26.07;50.73;96355.99;626098;226;62232;-73
2023/03/06 02:21:53;;;;;;;;;;;;;;;26.06;49.07;96359.02;626004;226;62174;-73
2023/03/06 02:24:25;;;;;;;;;;;;;;;26.04;51.79;96353.94;626111;226;64044;-73
2023/03/06 02:26:54;;;;;;;;;;;;;;;26.05;49.99;96362.80;626109;226;61981;-73
2023/03/06 02:29:23;;;;;;;;;;;;;;;26.04;50.06;96356.63;626120;226;65105;-73
2023/03/06 02:31:51;;;;;;;;;;;;;;;26.03;47.77;96360.45;626114;226;62713;-73
2023/03/06 02:34:23;;;;;;;;;;;;;;;26.02;50.87;96366.92;626099;226;64424;-73
2023/03/06 02:36:52;;;;;;;;;;;;;;;26.02;50.12;96364.23;626151;226;62106;-74
2023/03/06 02:39:20;;;;;;;;;;;;;;;26.02;50.31;96366.14;626089;226;65024;-74
2023/03/06 02:41:48;;;;;;;;;;;;;;;26.01;48.99;96369.95;626109;226;64513;-73
2023/03/06 02:44:16;;;;;;;;;;;;;;;26.00;49.94;96371.05;626129;226;61643;-74
2023/03/06 02:46:44;;;;;;;;;;;;;;;25.99;48.42;96369.47;626002;226;64893;-73
2023/03/06 02:49:11;;;;;;;;;;;;;;;25.99;50.67;96372.95;626118;226;65990;-74
2023/03/06 02:51:39;;;;;;;;;;;;;;;25.98;52.07;96376.77;626035;226;65465;-73
2023/03/06 02:54:06;;;;;;;;;;;;;;;25.97;50.89;96383.23;626045;226;64874;-73
2023/03/06 02:56:34;;;;;;;;;;;;;;;25.96;51.52;96378.98;626016;226;65621;-74
2023/03/06 02:59:02;;;;;;;;;;;;;;;25.96;50.56;96380.88;626029;226;62663;-73
2023/03/06 03:01:30;;;;;;;;;;;;;;;25.95;50.56;96379.31;626069;226;65627;-71
2023/03/06 03:03:57;;;;;;;;;;;;;;;25.95;49.74;96379.31;626094;226;65468;-74
2023/03/06 03:06:25;;;;;;;;;;;;;;;25.94;49.93;96380.41;626028;226;62869;-72
2023/03/06 03:08:53;;;;;;;;;;;;;;;25.94;50.37;96388.48;626044;226;62437;-71
2023/03/06 03:11:20;;;;;;;;;;;;;;;25.93;51.00;96386.91;626066;226;65239;-76
2023/03/06 03:13:48;;;;;;;;;;;;;;;25.90;47.36;96383.73;626029;224;64706;-74
2023/03/06 03:16:17;;;;;;;;;;;;;;;25.92;50.35;96394.20;626071;226;42487;-75
2023/03/06 03:18:46;;;;;;;;;;;;;;;25.90;50.24;96391.02;626055;226;63000;-75
2023/03/06 03:21:15;;;;;;;;;;;;;;;25.89;51.86;96392.11;626001;226;65216;-74
2023/03/06 03:23:42;;;;;;;;;;;;;;;25.90;50.21;96399.09;626034;226;64834;-74
2023/03/06 03:26:11;;;;;;;;;;;;;;;25.88;50.53;96399.41;626060;226;65766;-74
2023/03/06 03:28:41;;;;;;;;;;;;;;;25.86;47.25;96393.56;626170;225;42644;-75
2023/03/06 03:31:10;;;;;;;;;;;;;;;25.86;47.92;96398.95;626094;226;64846;-75
2023/03/06 03:33:38;;;;;;;;;;;;;;;25.87;53.47;96395.14;626062;226;65498;-75
2023/03/06 03:36:07;;;;;;;;;;;;;;;25.84;49.22;96403.85;626086;226;63259;-75
2023/03/06 03:38:36;;;;;;;;;;;;;;;25.85;52.08;96397.34;625292;226;62413;-75
2023/03/06 03:41:04;;;;;;;;;;;;;;;25.84;51.81;96406.55;624934;227;63054;-75
2023/03/06 03:43:31;;;;;;;;;;;;;;;25.83;50.18;96404.13;624937;227;64977;-75
2023/03/06 03:45:59;;;;;;;;;;;;;;;25.81;49.45;96396.38;624928;227;65993;-75
2023/03/06 03:48:27;;;;;;;;;;;;;;;25.82;51.24;96399.86;624916;227;62988;-75
2023/03/06 03:50:55;;;;;;;;;;;;;;;25.80;47.93;96400.17;624934;227;65477;-75
2023/03/06 03:53:23;;;;;;;;;;;;;;;25.81;49.39;96403.64;624894;227;62334;-75
2023/03/06 03:55:51;;;;;;;;;;;;;;;25.79;49.61;96398.59;624960;227;66099;-73
2023/03/06 03:58:19;;;;;;;;;;;;;;;25.79;50.94;96397.81;624909;227;64989;-73
2023/03/06 04:00:46;;;;;;;;;;;;;;;25.77;47.16;96400.02;624913;227;63630;-73
2023/03/06 04:03:14;;;;;;;;;;;;;;;25.77;49.67;96403.50;624945;227;62584;-73
2023/03/06 04:05:43;;;;;;;;;;;;;;;25.78;51.01;96406.97;624980;226;43873;-73
2023/03/06 04:08:12;;;;;;;;;;;;;;;25.76;47.97;96403.83;624960;227;65719;-73
2023/03/06 04:10:41;;;;;;;;;;;;;;;25.74;48.30;96401.44;624894;227;65564;-73
2023/03/06 04:13:09;;;;;;;;;;;;;;;25.74;49.86;96408.73;624958;227;65685;-75
2023/03/06 04:15:39;;;;;;;;;;;;;;;25.73;48.26;96405.25;624970;226;44972;-75
2023/03/06 04:18:07;;;;;;;;;;;;;;;25.74;51.48;96400.66;624926;227;65459;-75
2023/03/06 04:20:35;;;;;;;;;;;;;;;25.72;51.60;96400.95;624854;227;62506;-75
2023/03/06 04:23:04;;;;;;;;;;;;;;;25.73;50.55;96407.12;624934;227;64890;-75
2023/03/06 04:25:32;;;;;;;;;;;;;;;25.73;52.26;96410.63;615327;227;69271;-75
2023/03/06 04:28:00;;;;;;;;;;;;;;;25.71;49.15;96407.46;615680;227;62520;-75
2023/03/06 04:30:28;;;;;;;;;;;;;;;25.69;50.33;96407.77;624955;227;65648;-75
2023/03/06 04:32:56;;;;;;;;;;;;;;;25.69;48.44;96406.98;624789;227;65438;-75
2023/03/06 04:35:24;;;;;;;;;;;;;;;25.68;49.23;96402.71;624874;227;63283;-75
2023/03/06 04:37:53;;;;;;;;;;;;;;;25.67;47.63;96409.19;625181;226;42611;-75
2023/03/06 04:40:22;;;;;;;;;;;;;;;25.68;49.67;96416.17;625959;226;65962;-75
2023/03/06 04:42:50;;;;;;;;;;;;;;;25.67;49.16;96412.69;624995;225;65035;-75
2023/03/06 04:45:17;;;;;;;;;;;;;;;25.66;48.95;96412.99;625729;226;62797;-75
2023/03/06 04:47:45;;;;;;;;;;;;;;;25.65;48.57;96414.90;626035;226;63278;-75
2023/03/06 04:50:12;;;;;;;;;;;;;;;25.64;49.23;96425.96;626121;226;64838;-73
2023/03/06 04:52:40;;;;;;;;;;;;;;;25.64;49.08;96421.37;626097;226;62784;-73
2023/03/06 04:55:08;;;;;;;;;;;;;;;25.63;50.14;96421.70;626040;226;62730;-73
2023/03/06 04:57:36;;;;;;;;;;;;;;;25.62;49.55;96426.30;626074;226;65242;-73
2023/03/06 05:00:04;;;;;;;;;;;;;;;25.62;50.00;96437.06;626041;226;65075;-73
2023/03/06 05:02:33;;;;;;;;;;;;;;;25.61;51.21;96438.14;626046;226;63310;-73
2023/03/06 05:05:00;;;;;;;;;;;;;;;25.60;52.25;96425.81;626047;224;62904;-73
2023/03/06 05:07:28;;;;;;;;;;;;;;;25.59;50.02;96434.19;626056;226;66095;-72
2023/03/06 05:09:55;;;;;;;;;;;;;;;25.58;48.29;96429.92;626045;226;65216;-73
2023/03/06 05:12:23;;;;;;;;;;;;;;;25.58;49.92;96436.09;626103;224;62916;-73
2023/03/06 05:14:50;;;;;;;;;;;;;;;25.58;50.29;96440.69;626012;226;64428;-73
2023/03/06 05:17:18;;;;;;;;;;;;;;;25.57;48.93;96433.73;626047;226;65488;-73
2023/03/06 05:19:48;;;;;;;;;;;;;;;25.57;50.45;96441.80;626028;226;64998;-73
2023/03/06 05:22:15;;;;;;;;;;;;;;;25.55;49.75;96439.41;625927;226;62806;-73
2023/03/06 05:24:43;;;;;;;;;;;;;;;25.55;48.26;96444.01;626004;226;63057;-73
2023/03/06 05:27:10;;;;;;;;;;;;;;;25.54;48.58;96448.59;626026;226;62613;-73
2023/03/06 05:29:38;;;;;;;;;;;;;;;25.54;48.62;96451.30;626034;224;64664;-73
2023/03/06 05:32:06;;;;;;;;;;;;;;;25.54;48.27;96453.20;626009;226;65465;-73
2023/03/06 05:34:33;;;;;;;;;;;;;;;25.52;49.01;96463.47;626041;226;64959;-73
2023/03/06 05:37:01;;;;;;;;;;;;;;;25.52;48.76;96460.78;626007;226;64048;-73
2023/03/06 05:39:29;;;;;;;;;;;;;;;25.51;50.16;96464.55;626082;226;63007;-73
2023/03/06 05:41:56;;;;;;;;;;;;;;;25.50;48.24;96471.05;626073;226;62330;-73
2023/03/06 05:44:24;;;;;;;;;;;;;;;25.51;50.79;96472.63;626075;226;62730;-73
2023/03/06 05:46:51;;;;;;;;;;;;;;;25.50;52.36;96479.13;626075;226;64945;-73
2023/03/06 05:49:19;;;;;;;;;;;;;;;25.49;50.44;96481.03;626062;226;62801;-73
2023/03/06 05:51:46;;;;;;;;;;;;;;;25.49;48.39;96477.55;626132;226;62853;-72
2023/03/06 05:54:14;;;;;;;;;;;;;;;25.47;49.88;96475.95;626037;226;64871;-73
2023/03/06 05:56:41;;;;;;;;;;;;;;;25.49;50.38;96482.94;626089;226;64772;-73
2023/03/06 05:59:09;;;;;;;;;;;;;;;25.47;47.92;96484.02;626087;226;64887;-73
2023/03/06 06:01:36;;;;;;;;;;;;;;;25.49;52.16;96485.63;626060;226;65267;-73
2023/03/06 06:04:04;;;;;;;;;;;;;;;25.47;50.29;96484.02;626068;226;62908;-72
2023/03/06 06:06:31;;;;;;;;;;;;;;;25.47;48.96;96492.09;626081;226;62733;-72
2023/03/06 06:08:59;;;;;;;;;;;;;;;25.45;47.69;96491.63;626023;226;63990;-72
2023/03/06 06:11:26;;;;;;;;;;;;;;;25.46;48.39;96495.89;626053;226;65113;-72
2023/03/06 06:13:54;;;;;;;;;;;;;;;25.47;52.26;96488.61;626021;226;64934;-72
2023/03/06 06:16:21;;;;;;;;;;;;;;;25.46;51.23;96498.59;626079;226;63268;-72
2023/03/06 06:18:50;;;;;;;;;;;;;;;25.46;50.03;96503.97;626073;224;62903;-71
2023/03/06 06:21:17;;;;;;;;;;;;;;;25.45;48.67;96504.27;626021;226;64858;-71
2023/03/06 06:23:45;;;;;;;;;;;;;;;25.46;51.77;96505.87;626030;226;65209;-72
2023/03/06 06:26:12;;;;;;;;;;;;;;;25.45;47.69;96507.77;626047;226;62874;-71
2023/03/06 06:28:40;;;;;;;;;;;;;;;25.46;49.94;96509.34;626019;226;62762;-72
2023/03/06 06:31:08;;;;;;;;;;;;;;;25.46;49.33;96513.94;626097;226;63132;-74
2023/03/06 06:33:36;;;;;;;;;;;;;;;25.46;51.81;96512.03;626024;226;65055;-72
2023/03/06 06:36:03;;;;;;;;;;;;;;;25.47;49.00;96518.20;626016;226;64835;-72
2023/03/06 06:38:31;;;;;;;;;;;;;;;25.47;51.11;96513.61;625150;226;65465;-75
2023/03/06 06:41:01;;;;;;;;;;;;;;;25.46;49.28;96514.73;624872;227;65008;-73
2023/03/06 06:43:28;;;;;;;;;;;;;;;25.47;50.25;96512.83;624925;227;62841;-71
2023/03/06 06:45:57;;;;;;;;;;;;;;;25.47;50.27;96516.30;624861;227;62843;-70
2023/03/06 06:48:25;;;;;;;;;;;;;;;25.48;47.92;96519.78;624884;227;62883;-71
2023/03/06 06:50:56;;;;;;;;;;;;;;;25.49;49.79;96517.91;624770;227;62918;-75
2023/03/06 06:53:24;;;;;;;;;;;;;;;25.50;49.07;96524.86;624760;227;65557;-72
2023/03/06 06:55:51;;;;;;;;;;;;;;;25.51;51.67;96518.36;624998;227;64973;-72
2023/03/06 06:58:19;;;;;;;;;;;;;;;25.51;49.26;96521.05;624895;227;65038;-75
2023/03/06 07:00:46;;;;;;;;;;;;;;;25.51;48.41;96521.88;624919;227;65463;-74
2023/03/06 07:03:13;;;;;;;;;;;;;;;25.52;45.15;96525.34;624906;227;63119;-68
2023/03/06 07:05:41;;;;;;;;;;;;;;;25.51;48.87;96521.88;624927;227;62701;-70
2023/03/06 07:08:09;;;;;;;;;;;;;;;25.51;49.58;96521.05;624989;227;65672;-74
2023/03/06 07:10:42;;;;;;;;;;;;;;;25.49;47.22;96524.07;625000;227;62978;-73
2023/03/06 07:13:06;;;;;;;;;;;;;;;25.49;50.24;96512.52;624747;226;62729;-69
2023/03/06 07:15:34;;;;;;;;;;;;;;;25.47;49.89;96510.92;624885;227;63169;-71
2023/03/06 07:18:01;;;;;;;;;;;;;;;25.47;48.08;96512.83;624250;227;64830;-71
2023/03/06 07:20:30;;;;;;;;;;;;;;;25.46;47.20;96509.34;624907;227;65181;-72
2023/03/06 07:22:58;;;;;;;;;;;;;;;25.46;47.02;96503.97;624732;227;64972;-69
2023/03/06 07:25:25;;;;;;;;;;;;;;;25.46;49.32;96509.34;624762;227;65078;-70
2023/03/06 07:27:55;;;;;;;;;;;;;;;25.47;48.08;96507.44;624566;227;62699;-72
2023/03/06 07:30:23;;;;;;;;;;;;;;;25.47;49.43;96510.92;624722;227;63226;-71
2023/03/06 07:32:54;;;;;;;;;;;;;;;25.47;49.30;96510.92;624845;227;64993;-69
2023/03/06 07:35:21;;;;;;;;;;;;;;;25.46;47.34;96511.25;624961;227;62770;-71
2023/03/06 07:37:50;;;;;;;;;;;;;;;25.47;47.48;96516.30;624839;226;63066;-70
2023/03/06 07:40:18;;;;;;;;;;;;;;;25.47;48.49;96513.61;624809;227;65193;-71
2023/03/06 07:42:46;;;;;;;;;;;;;;;25.47;48.89;96516.30;624851;227;64940;-70
2023/03/06 07:45:15;;;;;;;;;;;;;;;25.47;46.72;96515.52;624910;226;44145;-70
2023/03/06 07:47:43;;;;;;;;;;;;;;;25.48;47.06;96511.70;624909;227;65126;-70
2023/03/06 07:50:11;;;;;;;;;;;;;;;25.49;47.53;96518.69;624949;227;64848;-70
2023/03/06 07:52:38;;;;;;;;;;;;;;;25.47;45.64;96508.23;624784;227;65472;-71
2023/03/06 07:55:06;;;;;;;;;;;;;;;25.49;45.75;96518.69;624839;227;64996;-71
2023/03/06 07:57:33;;;;;;;;;;;;;;;25.50;47.66;96508.72;624872;227;65033;-71
2023/03/06 08:00:01;;;;;;;;;;;;;;;25.50;47.56;96509.50;624827;227;65241;-69
2023/03/06 08:02:28;;;;;;;;;;;;;;;25.51;41.09;96504.91;624873;227;65579;-70
2023/03/06 08:04:56;;;;;;;;;;;;;;;25.52;48.50;96501.14;624896;227;65053;-71
2023/03/06 08:07:23;;;;;;;;;;;;;;;25.51;47.93;96504.91;624805;227;65451;-71
2023/03/06 08:09:51;;;;;;;;;;;;;;;25.52;49.09;96506.52;624859;227;64746;-71
2023/03/06 08:12:18;;;;;;;;;;;;;;;25.51;49.69;96499.53;624891;227;64900;-71
2023/03/06 08:14:46;;;;;;;;;;;;;;;25.51;47.92;96502.22;624819;227;65436;-71
2023/03/06 08:17:13;;;;;;;;;;;;;;;25.50;48.07;96512.20;624801;227;65629;-73
2023/03/06 08:19:41;;;;;;;;;;;;;;;25.51;52.99;96511.11;624881;227;62669;-75
2023/03/06 08:22:09;;;;;;;;;;;;;;;25.52;50.56;96511.89;624758;227;62995;-77
2023/03/06 08:24:37;;;;;;;;;;;;;;;25.51;47.50;96508.42;624842;227;65256;-72
2023/03/06 08:27:10;;;;;;;;;;;;;;;25.53;49.87;96508.88;624923;227;62777;-74
2023/03/06 08:29:37;;;;;;;;;;;;;;;25.55;49.66;96508.58;624827;227;65426;-72
2023/03/06 08:32:09;;;;;;;;;;;;;;;25.55;49.10;96503.20;624846;227;65060;-72
2023/03/06 08:34:38;;;;;;;;;;;;;;;25.55;48.79;96505.89;624641;227;62496;-73
2023/03/06 08:37:05;;;;;;;;;;;;;;;25.56;50.19;96499.39;624748;226;63603;-73
2023/03/06 08:39:33;;;;;;;;;;;;;;;25.55;48.65;96495.91;624902;227;64801;-72
2023/03/06 08:42:00;;;;;;;;;;;;;;;25.56;47.88;96491.31;624905;227;64890;-71
2023/03/06 08:44:28;;;;;;;;;;;;;;;25.56;47.55;96502.08;624743;227;65726;-66
2023/03/06 08:46:55;;;;;;;;;;;;;;;25.56;47.98;96494.80;624886;227;65227;-75
2023/03/06 08:49:25;;;;;;;;;;;;;;;25.57;51.80;96490.23;624579;226;45172;-72
2023/03/06 08:51:52;;;;;;;;;;;;;;;25.57;49.16;96492.92;624849;227;63977;-71
2023/03/06 08:54:20;;;;;;;;;;;;;;;25.57;48.89;96500.99;624914;227;64854;-68
2023/03/06 08:56:47;;;;;;;;;;;;;;;25.57;49.59;96490.23;624789;227;65083;-79
2023/03/06 08:59:14;;;;;;;;;;;;;;;25.56;49.84;96492.11;624893;227;65500;-74
2023/03/06 09:01:43;;;;;;;;;;;;;;;25.56;45.75;96491.31;624790;227;64988;-77
2023/03/06 09:04:11;;;;;;;;;;;;;;;25.56;47.67;96483.25;624799;227;62774;-72
2023/03/06 09:06:40;;;;;;;;;;;;;;;25.55;45.92;96485.15;624842;227;63113;-71
2023/03/06 09:09:08;;;;;;;;;;;;;;;25.55;47.32;96476.30;624871;227;65092;-72
2023/03/06 09:11:37;;;;;;;;;;;;;;;25.55;48.58;96478.98;624813;227;65338;-72
2023/03/06 09:14:05;;;;;;;;;;;;;;;25.55;48.39;96482.46;622547;227;65456;-74
2023/03/06 09:16:33;;;;;;;;;;;;;;;25.52;45.53;96477.70;624842;227;65005;-71
2023/03/06 09:19:05;;;;;;;;;;;;;;;25.54;47.72;96461.27;624780;227;64887;-81
2023/03/06 09:21:32;;;;;;;;;;;;;;;25.52;49.14;96466.95;624641;226;45366;-77
2023/03/06 09:23:59;;;;;;;;;;;;;;;25.54;48.70;96466.65;624888;227;62708;-72
2023/03/06 09:26:27;;;;;;;;;;;;;;;25.55;47.84;96460.94;624757;227;62851;-72
2023/03/06 09:28:54;;;;;;;;;;;;;;;25.57;47.44;96460.63;624833;227;64111;-80
2023/03/06 09:31:22;;;;;;;;;;;;;;;25.59;47.85;96466.47;624864;227;63214;-73
2023/03/06 09:33:49;;;;;;;;;;;;;;;25.59;51.17;96455.71;624867;227;62689;-72
2023/03/06 09:36:18;;;;;;;;;;;;;;;25.60;48.38;96460.79;624869;227;63023;-78
2023/03/06 09:38:48;;;;;;;;;;;;;;;25.61;50.41;96451.59;624783;226;65198;-71
2023/03/06 09:41:17;;;;;;;;;;;;;;;25.62;48.46;96463.18;624769;227;62830;-72
2023/03/06 09:43:46;;;;;;;;;;;;;;;25.63;47.72;96454.77;624810;227;63127;-73
2023/03/06 09:46:21;;;;;;;;;;;;;;;25.62;47.97;96455.89;624947;227;62719;-73
2023/03/06 09:49:00;;;;;;;;;;;;;;;25.62;47.79;96455.89;624929;227;64845;-72
2023/03/06 09:51:29;;;;;;;;;;;;;;;25.62;47.29;96452.42;624896;227;64850;-75
2023/03/06 09:54:01;;;;;;;;;;;;;;;25.63;48.30;96445.92;624772;227;64780;-70
2023/03/06 09:56:30;;;;;;;;;;;;;;;25.62;47.74;96447.82;623253;226;65198;-79
2023/03/06 09:59:00;;;;;;;;;;;;;;;25.63;49.21;96449.39;624904;227;65535;-78
2023/03/06 10:01:33;;;;;;;;;;;;;;;25.62;47.22;96441.66;624531;226;64889;-79
2023/03/06 10:04:06;;;;;;;;;;;;;;;25.63;47.54;96446.70;624921;227;62947;-71
2023/03/06 10:06:34;;;;;;;;;;;;;;;25.62;45.57;96444.34;624829;227;62718;-72
2023/03/06 10:09:04;;;;;;;;;;;;;;;25.64;48.00;96447.48;624806;227;62846;-75
2023/03/06 10:11:33;;;;;;;;;;;;;;;25.64;50.36;96434.82;624477;226;64875;-70
2023/03/06 10:14:18;;;;;;;;;;;;;;;25.63;46.53;96432.47;624572;226;63071;-72
2023/03/06 10:16:46;;;;;;;;;;;;;;;25.64;48.63;96429.44;622659;227;65351;-68
2023/03/06 10:19:20;;;;;;;;;;;;;;;25.64;48.58;96420.58;622291;227;65020;-70
2023/03/06 10:21:49;;;;;;;;;;;;;;;25.64;48.30;96420.58;620533;227;63041;-73
2023/03/06 10:24:21;;;;;;;;;;;;;;;25.64;48.63;96426.75;616674;229;66082;-75
2023/03/06 10:26:50;;;;;;;;;;;;;;;25.62;46.80;96418.22;617372;228;64887;-74
2023/03/06 10:29:35;;;;;;;;;;;;;;;25.62;48.27;96415.53;617670;229;65511;-72
2023/03/06 10:32:04;;;;;;;;;;;;;;;25.62;49.03;96414.75;617764;229;64990;-70
2023/03/06 10:34:34;;;;;;;;;;;;;;;25.61;47.35;96413.93;617577;228;65044;-72
2023/03/06 10:37:02;;;;;;;;;;;;;;;25.62;50.49;96412.05;617372;228;62979;-78
2023/03/06 10:39:30;;;;;;;;;;;;;;;25.60;46.63;96409.66;617745;228;62573;-72
2023/03/06 10:41:57;;;;;;;;;;;;;;;25.59;46.25;96405.41;617824;229;62776;-70
2023/03/06 10:44:25;;;;;;;;;;;;;;;25.56;48.39;96397.94;617655;229;63029;-74
2023/03/06 10:46:53;;;;;;;;;;;;;;;25.55;47.21;96395.58;617771;229;65337;-77
2023/03/06 10:49:25;;;;;;;;;;;;;;;25.54;46.95;96394.00;617755;229;64883;-73
2023/03/06 10:51:56;;;;;;;;;;;;;;;25.52;37.25;96388.14;617685;229;62770;-76
2023/03/06 10:54:24;;;;;;;;;;;;;;;25.53;47.02;96389.71;617764;229;62022;-74
2023/03/06 10:56:51;;;;;;;;;;;;;;;25.51;47.55;96381.98;617737;229;62779;-77
2023/03/06 10:59:24;;;;;;;;;;;;;;;25.50;47.19;96369.61;617734;229;63270;-73
2023/03/06 11:01:56;;;;;;;;;;;;;;;25.50;49.53;96363.45;617795;229;65279;-72
2023/03/06 11:04:25;;;;;;;;;;;;;;;25.49;47.55;96361.88;618632;227;64844;-75
2023/03/06 11:07:11;;;;;;;;;;;;;;;25.46;45.83;96358.70;617543;229;66519;-71
2023/03/06 11:09:38;;;;;;;;;;;;;;;25.47;48.10;96351.41;618711;227;65075;-70
2023/03/06 11:12:16;;;;;;;;;;;;;;;25.45;49.69;96354.44;618057;227;64014;-68
2023/03/06 11:14:44;;;;;;;;;;;;;;;25.44;46.98;96354.74;624192;227;65658;-71
2023/03/06 11:17:28;;;;;;;;;;;;;;;25.43;46.74;96337.81;624823;227;62902;-69
2023/03/06 11:20:09;;;;;;;;;;;;;;;25.43;49.53;96340.50;624711;227;62777;-73
2023/03/06 11:22:38;;;;;;;;;;;;;;;25.43;48.42;96337.03;612611;226;65520;-70
2023/03/06 11:25:05;;;;;;;;;;;;;;;25.42;47.62;96335.42;624759;227;62897;-71
2023/03/06 11:27:34;;;;;;;;;;;;;;;25.42;48.95;96324.67;624577;227;62550;-71
2023/03/06 11:30:03;;;;;;;;;;;;;;;25.40;46.81;96325.00;623571;227;65692;-71
2023/03/06 11:32:32;;;;;;;;;;;;;;;25.40;48.71;96330.38;622059;227;65061;-71
2023/03/06 11:35:04;;;;;;;;;;;;;;;25.39;47.42;96326.09;618085;226;63191;-70
2023/03/06 11:37:48;;;;;;;;;;;;;;;25.39;46.54;96331.47;617888;229;63913;-68
2023/03/06 11:40:17;;;;;;;;;;;;;;;25.38;48.19;96335.28;618782;229;62953;-72
2023/03/06 11:42:49;;;;;;;;;;;;;;;25.39;48.58;96325.30;617771;229;65052;-71
2023/03/06 11:45:18;;;;;;;;;;;;;;;25.39;48.50;96326.09;618674;229;65480;-74
2023/03/06 11:47:47;;;;;;;;;;;;;;;25.39;48.90;96328.78;618699;227;65110;-72
2023/03/06 11:50:16;;;;;;;;;;;;;;;25.39;47.38;96319.92;618528;229;64976;-72
2023/03/06 11:52:45;;;;;;;;;;;;;;;25.39;49.09;96315.33;617819;229;66650;-70
2023/03/06 11:55:14;;;;;;;;;;;;;;;25.38;47.08;96307.59;618846;229;65467;-70
2023/03/06 11:57:53;;;;;;;;;;;;;;;25.38;48.99;96303.00;618887;229;65167;-69
2023/03/06 12:00:22;;;;;;;;;;;;;;;25.38;48.01;96300.31;617753;229;65279;-70
2023/03/06 12:03:00;;;;;;;;;;;;;;;25.39;47.65;96301.88;618925;226;65770;-70
2023/03/06 12:05:38;;;;;;;;;;;;;;;25.39;47.12;96301.88;622259;226;65126;-70
2023/03/06 12:08:23;;;;;;;;;;;;;;;25.39;50.11;96293.81;619803;226;65501;-70
2023/03/06 12:10:52;;;;;;;;;;;;;;;25.39;47.05;96288.44;618844;229;63252;-70
2023/03/06 12:13:30;;;;;;;;;;;;;;;25.39;49.33;96291.13;618868;229;63242;-70
2023/03/06 12:16:16;;;;;;;;;;;;;;;25.40;50.25;96295.41;618215;229;63057;-69
2023/03/06 12:18:55;;;;;;;;;;;;;;;25.40;50.55;96295.41;618799;229;65434;-70
2023/03/06 12:21:40;;;;;;;;;;;;;;;25.40;49.07;96283.84;618941;229;63120;-70
2023/03/06 12:24:09;;;;;;;;;;;;;;;25.40;48.38;96273.89;619782;226;62979;-73
2023/03/06 12:26:44;;;;;;;;;;;;;;;25.41;50.41;96275.47;618563;228;65021;-77
2023/03/06 12:29:13;;;;;;;;;;;;;;;25.41;45.22;96264.70;618856;229;62949;-70
2023/03/06 12:32:02;;;;;;;;;;;;;;;25.42;46.75;96266.28;618686;228;63575;-70
2023/03/06 12:34:34;;;;;;;;;;;;;;;25.42;48.94;96263.59;618798;229;63269;-71
2023/03/06 12:37:09;;;;;;;;;;;;;;;25.42;49.54;96258.20;614588;229;63085;-73
2023/03/06 12:39:39;;;;;;;;;;;;;;;25.43;50.27;96259.81;618683;228;64173;-71
2023/03/06 12:42:08;;;;;;;;;;;;;;;25.43;49.84;96262.50;613918;229;62970;-76
2023/03/06 12:44:41;;;;;;;;;;;;;;;25.44;47.97;96252.52;618773;229;65180;-64
2023/03/06 12:47:10;;;;;;;;;;;;;;;25.46;51.16;96250.31;618879;229;65468;-65
2023/03/06 12:49:39;;;;;;;;;;;;;;;25.45;49.03;96252.22;618863;229;63113;-66
2023/03/06 12:52:08;;;;;;;;;;;;;;;25.46;49.29;96250.31;618780;228;63777;-65
2023/03/06 12:54:37;;;;;;;;;;;;;;;25.47;48.26;96247.29;618742;229;63410;-75
2023/03/06 12:57:06;;;;;;;;;;;;;;;25.50;47.32;96250.45;618870;229;65149;-73